Time;durP1;ratioP1;P1;durP2;ratioP2;P2;SDS_P1;SDS_P2;PMS_P1;PMS_P2;Temp;Humidity;BMP_temperature;BMP_pressure;BME280_temperature;BME280_humidity;BME280_pressure;Samples;Min_cycle;Max_cycle;Signal;HPM_P1;HPM_P2
2023/01/22 00:01:20;;;;;;;3.70;3.40;;;21.10;51.80;;;;;;4932651;29;20490;-67
2023/01/22 00:03:49;;;;;;;3.17;2.97;;;21.10;51.90;;;;;;4934283;29;20483;-67
2023/01/22 00:06:17;;;;;;;3.93;3.60;;;21.10;51.90;;;;;;4929928;29;20483;-66
2023/01/22 00:08:47;;;;;;;3.90;3.60;;;21.10;51.90;;;;;;4935385;29;20546;-67
2023/01/22 00:11:15;;;;;;;3.40;3.10;;;21.10;51.90;;;;;;4933244;29;20964;-67
2023/01/22 00:13:44;;;;;;;3.27;3.07;;;21.10;51.90;;;;;;4935728;29;20481;-66
2023/01/22 00:16:14;;;;;;;3.37;3.17;;;21.10;51.90;;;;;;4935278;29;20458;-66
2023/01/22 00:18:43;;;;;;;4.67;4.27;;;21.10;51.90;;;;;;4934315;29;20912;-67
2023/01/22 00:21:12;;;;;;;3.60;3.30;;;21.10;51.90;;;;;;4934934;29;20527;-67
2023/01/22 00:23:41;;;;;;;3.53;3.23;;;21.10;51.90;;;;;;4933130;29;20512;-67
2023/01/22 00:26:11;;;;;;;3.27;3.07;;;21.00;51.90;;;;;;4932567;29;20503;-66
2023/01/22 00:28:43;;;;;;;3.80;3.50;;;21.00;51.90;;;;;;4932835;29;20503;-67
2023/01/22 00:31:13;;;;;;;3.30;3.00;;;21.10;51.90;;;;;;4934358;29;20581;-67
2023/01/22 00:33:43;;;;;;;3.27;3.03;;;21.10;51.90;;;;;;4933223;29;20489;-66
2023/01/22 00:36:14;;;;;;;2.60;2.50;;;21.00;51.90;;;;;;4933282;29;20462;-67
2023/01/22 00:38:42;;;;;;;3.90;3.57;;;21.00;51.90;;;;;;4939770;29;20483;-67
2023/01/22 00:41:12;;;;;;;3.20;3.00;;;21.10;51.90;;;;;;4934154;29;20593;-67
2023/01/22 00:43:40;;;;;;;2.90;2.70;;;21.10;51.90;;;;;;4932205;29;20465;-67
2023/01/22 00:46:11;;;;;;;3.37;3.17;;;21.10;51.90;;;;;;4932166;29;20473;-67
2023/01/22 00:48:39;;;;;;;3.23;3.00;;;21.10;51.90;;;;;;4934600;29;20445;-67
2023/01/22 00:51:09;;;;;;;3.17;2.87;;;21.10;51.90;;;;;;4933188;29;20861;-67
2023/01/22 00:53:37;;;;;;;2.97;2.77;;;21.10;51.90;;;;;;4933428;29;20461;-66
2023/01/22 00:56:06;;;;;;;2.90;2.70;;;21.00;51.90;;;;;;4933755;29;20850;-67
2023/01/22 00:58:35;;;;;;;3.00;2.80;;;21.10;51.90;;;;;;4934349;29;20981;-67
2023/01/22 01:01:03;;;;;;;2.77;2.57;;;21.10;51.80;;;;;;4932882;29;20599;-67
2023/01/22 01:03:35;;;;;;;2.90;2.70;;;21.10;51.80;;;;;;4929870;29;20966;-67
2023/01/22 01:06:06;;;;;;;2.70;2.50;;;21.10;51.80;;;;;;4932651;29;20450;-66
2023/01/22 01:08:37;;;;;;;2.60;2.40;;;21.10;51.90;;;;;;4934940;29;20459;-67
2023/01/22 01:11:08;;;;;;;2.77;2.57;;;21.10;51.80;;;;;;4933889;29;20459;-67
2023/01/22 01:13:39;;;;;;;3.40;3.17;;;21.10;51.80;;;;;;4934103;29;20796;-67
2023/01/22 01:16:11;;;;;;;3.60;3.30;;;21.10;51.80;;;;;;4933618;29;20466;-66
2023/01/22 01:18:39;;;;;;;2.67;2.57;;;21.10;51.80;;;;;;4944338;29;20493;-67
2023/01/22 01:21:08;;;;;;;3.90;2.80;;;21.10;51.70;;;;;;4932793;29;20573;-66
2023/01/22 01:23:38;;;;;;;2.80;2.60;;;21.10;51.80;;;;;;4934717;29;20509;-66
2023/01/22 01:26:07;;;;;;;3.20;3.00;;;21.10;51.80;;;;;;4929485;29;20457;-67
2023/01/22 01:28:36;;;;;;;2.93;2.73;;;21.10;51.70;;;;;;4934440;29;20447;-67
2023/01/22 01:31:05;;;;;;;2.50;2.37;;;21.10;51.70;;;;;;4932021;29;20544;-66
2023/01/22 01:33:34;;;;;;;2.87;2.67;;;21.10;51.80;;;;;;4931524;29;20444;-66
2023/01/22 01:36:05;;;;;;;2.77;2.57;;;21.10;51.80;;;;;;4932018;29;20466;-68
2023/01/22 01:38:34;;;;;;;2.80;2.60;;;21.10;51.90;;;;;;4934467;29;20501;-67
2023/01/22 01:41:04;;;;;;;3.03;2.83;;;21.10;52.00;;;;;;4932151;29;20824;-67
2023/01/22 01:43:34;;;;;;;2.70;2.50;;;21.10;52.00;;;;;;4930873;29;20562;-67
2023/01/22 01:46:04;;;;;;;2.73;2.53;;;21.10;52.00;;;;;;4934326;29;20988;-67
2023/01/22 01:48:37;;;;;;;2.73;2.53;;;21.10;52.00;;;;;;4933479;29;20949;-67
2023/01/22 01:51:10;;;;;;;2.70;2.50;;;21.10;52.00;;;;;;4928931;29;20517;-67
2023/01/22 01:53:40;;;;;;;2.70;2.50;;;21.10;52.10;;;;;;4932338;29;20534;-67
2023/01/22 01:56:13;;;;;;;3.10;2.90;;;21.10;52.10;;;;;;4932882;29;20478;-67
2023/01/22 01:58:44;;;;;;;2.97;2.77;;;21.10;52.10;;;;;;4934637;29;20470;-67
2023/01/22 02:01:15;;;;;;;2.40;2.20;;;21.10;52.10;;;;;;4933926;29;20484;-67
2023/01/22 02:03:44;;;;;;;2.37;2.17;;;21.10;52.10;;;;;;4933238;29;20471;-67
2023/01/22 02:06:15;;;;;;;2.50;2.30;;;21.10;52.10;;;;;;4932584;29;20470;-67
2023/01/22 02:08:47;;;;;;;2.40;2.30;;;21.10;52.10;;;;;;4931182;29;20464;-66
2023/01/22 02:11:18;;;;;;;3.17;2.97;;;21.10;52.20;;;;;;4932112;29;20454;-67
2023/01/22 02:13:52;;;;;;;2.70;2.50;;;21.10;52.20;;;;;;4932825;29;20490;-66
2023/01/22 02:16:20;;;;;;;3.30;3.10;;;21.10;52.20;;;;;;4933583;29;20446;-66
2023/01/22 02:18:49;;;;;;;2.43;2.23;;;21.10;52.20;;;;;;4934756;29;20454;-66
2023/01/22 02:21:39;;;;;;;2.67;2.47;;;21.10;52.20;;;;;;4931975;29;20455;-67
2023/01/22 02:24:10;;;;;;;3.10;2.90;;;21.10;52.20;;;;;;4937810;29;20989;-66
2023/01/22 02:26:40;;;;;;;2.67;2.47;;;21.10;52.20;;;;;;4933030;29;20470;-66
2023/01/22 02:29:11;;;;;;;2.23;2.13;;;21.10;52.20;;;;;;4936592;29;20529;-67
2023/01/22 02:31:41;;;;;;;2.30;2.10;;;21.10;52.20;;;;;;4937567;29;20459;-67
2023/01/22 02:34:11;;;;;;;2.10;2.00;;;21.10;52.20;;;;;;4934706;29;20472;-67
2023/01/22 02:36:40;;;;;;;2.40;2.20;;;21.10;52.20;;;;;;4934491;29;20557;-67
2023/01/22 02:39:08;;;;;;;2.60;2.50;;;21.10;52.20;;;;;;4930413;29;20471;-67
2023/01/22 02:41:38;;;;;;;2.97;2.77;;;21.10;52.20;;;;;;4935943;29;20497;-66
2023/01/22 02:44:07;;;;;;;2.00;1.90;;;21.10;52.20;;;;;;4928521;29;21006;-67
2023/01/22 02:46:35;;;;;;;2.30;2.20;;;21.10;52.20;;;;;;4935277;29;20463;-67
2023/01/22 02:49:04;;;;;;;2.30;2.20;;;21.10;52.20;;;;;;4935703;29;20451;-67
2023/01/22 02:51:34;;;;;;;1.80;1.70;;;21.00;52.20;;;;;;4934098;29;20458;-66
2023/01/22 02:54:04;;;;;;;2.20;2.10;;;21.10;52.20;;;;;;4936919;29;20479;-66
2023/01/22 02:56:33;;;;;;;2.63;2.43;;;21.00;52.20;;;;;;4933933;29;20460;-67
2023/01/22 02:59:04;;;;;;;2.10;2.00;;;21.00;52.20;;;;;;4935307;29;20509;-67
2023/01/22 03:01:32;;;;;;;2.20;2.00;;;21.10;52.20;;;;;;4935679;29;20870;-67
2023/01/22 03:04:09;;;;;;;2.00;1.90;;;21.00;52.20;;;;;;4931570;29;20566;-67
2023/01/22 03:06:39;;;;;;;2.60;2.40;;;21.00;52.20;;;;;;4935687;29;20889;-66
2023/01/22 03:09:10;;;;;;;2.27;2.07;;;21.00;52.20;;;;;;4935410;29;20467;-66
2023/01/22 03:11:41;;;;;;;2.10;1.97;;;21.00;52.20;;;;;;4934392;29;20474;-67
2023/01/22 03:22:44;;;;;;;2.07;1.97;;;21.00;52.20;;;;;;4935079;29;20454;-66
2023/01/22 03:25:14;;;;;;;2.17;2.07;;;21.00;52.20;;;;;;4935025;29;20506;-66
2023/01/22 03:28:07;;;;;;;2.37;2.27;;;21.00;52.20;;;;;;4931428;29;20945;-67
2023/01/22 03:30:30;;;;;;;2.60;2.40;;;21.00;52.20;;;;;;4934712;29;20473;-67
2023/01/22 03:32:59;;;;;;;1.80;1.70;;;21.00;52.20;;;;;;4934551;29;20494;-67
2023/01/22 03:35:27;;;;;;;2.07;1.97;;;21.00;52.10;;;;;;4934880;29;20976;-66
2023/01/22 03:38:13;;;;;;;2.40;2.20;;;21.00;52.10;;;;;;4930460;29;20471;-67
2023/01/22 03:40:47;;;;;;;2.03;1.93;;;21.00;52.20;;;;;;4935503;29;20973;-68
2023/01/22 03:43:16;;;;;;;2.40;2.20;;;21.00;52.10;;;;;;4935249;29;20808;-67
2023/01/22 03:45:44;;;;;;;2.13;2.03;;;21.00;52.10;;;;;;4927670;29;20476;-66
2023/01/22 03:48:15;;;;;;;2.07;1.97;;;21.00;52.10;;;;;;4930882;29;20976;-67
2023/01/22 03:50:43;;;;;;;2.43;2.33;;;21.10;52.10;;;;;;4931264;29;20483;-67
2023/01/22 03:53:13;;;;;;;1.93;1.83;;;21.00;52.10;;;;;;4927329;29;20463;-67
2023/01/22 03:55:41;;;;;;;1.90;1.80;;;21.00;52.10;;;;;;4930770;29;20478;-67
2023/01/22 03:58:11;;;;;;;2.10;1.90;;;21.00;52.10;;;;;;4934917;29;20457;-66
2023/01/22 04:00:39;;;;;;;2.23;2.13;;;21.00;52.10;;;;;;4932240;29;20822;-67
2023/01/22 04:03:08;;;;;;;2.23;2.13;;;21.00;52.10;;;;;;4935035;29;20461;-67
2023/01/22 04:05:39;;;;;;;2.37;2.17;;;21.00;52.10;;;;;;4933284;29;20478;-67
2023/01/22 04:08:07;;;;;;;2.40;2.20;;;21.00;52.00;;;;;;4934488;29;20486;-67
2023/01/22 04:10:39;;;;;;;2.00;1.90;;;21.10;52.00;;;;;;4934269;29;20471;-66
2023/01/22 04:13:07;;;;;;;2.33;2.20;;;21.00;52.00;;;;;;4933102;29;20514;-67
2023/01/22 04:15:38;;;;;;;1.70;1.60;;;21.00;52.00;;;;;;4934030;29;20501;-67
2023/01/22 04:18:16;;;;;;;2.10;1.90;;;21.00;52.10;;;;;;4934332;29;20505;-66
2023/01/22 04:21:01;;;;;;;1.90;1.80;;;21.00;52.00;;;;;;4934394;29;20472;-67
2023/01/22 04:23:35;;;;;;;2.33;2.13;;;21.00;52.00;;;;;;4932704;29;20495;-67
2023/01/22 04:26:03;;;;;;;1.87;1.77;;;21.10;52.00;;;;;;4934355;29;20893;-66
2023/01/22 04:28:31;;;;;;;2.40;2.20;;;21.10;52.00;;;;;;4932053;29;20470;-67
2023/01/22 04:31:03;;;;;;;2.10;2.00;;;21.10;52.00;;;;;;4933659;29;20927;-67
2023/01/22 04:33:47;;;;;;;2.00;1.90;;;21.10;52.10;;;;;;4934096;29;20456;-66
2023/01/22 04:36:20;;;;;;;2.20;2.10;;;21.10;52.10;;;;;;4933065;29;20463;-67
2023/01/22 04:38:49;;;;;;;2.17;2.07;;;21.10;52.10;;;;;;4931227;29;20482;-67
2023/01/22 04:41:18;;;;;;;1.77;1.67;;;21.10;52.10;;;;;;4931512;29;20604;-66
2023/01/22 04:43:47;;;;;;;1.93;1.83;;;21.10;52.00;;;;;;4932113;29;20490;-67
2023/01/22 04:46:17;;;;;;;2.30;2.20;;;21.10;52.10;;;;;;4931394;29;20933;-67
2023/01/22 04:48:46;;;;;;;2.40;2.30;;;21.10;52.10;;;;;;4928865;29;20527;-67
2023/01/22 04:51:14;;;;;;;2.33;2.23;;;21.00;52.10;;;;;;4933523;29;20449;-66
2023/01/22 04:53:42;;;;;;;2.07;1.97;;;21.10;52.10;;;;;;4933117;29;20551;-67
2023/01/22 04:56:10;;;;;;;1.57;1.47;;;21.00;52.10;;;;;;4933255;29;20465;-67
2023/01/22 04:58:39;;;;;;;2.10;1.90;;;21.10;52.10;;;;;;4933710;29;20457;-66
2023/01/22 05:01:07;;;;;;;2.00;1.90;;;21.00;52.10;;;;;;4926290;29;20971;-67
2023/01/22 05:03:36;;;;;;;2.10;2.00;;;21.10;52.10;;;;;;4932142;29;20465;-67
2023/01/22 05:06:07;;;;;;;1.90;1.80;;;21.10;52.10;;;;;;4931217;29;20475;-67
2023/01/22 05:08:37;;;;;;;2.00;1.90;;;21.00;52.10;;;;;;4934636;29;21014;-66
2023/01/22 05:11:05;;;;;;;2.73;2.53;;;21.00;52.10;;;;;;4931011;29;20771;-67
2023/01/22 05:13:51;;;;;;;2.60;2.40;;;21.00;52.10;;;;;;4940123;29;20494;-67
2023/01/22 05:16:20;;;;;;;1.87;1.77;;;21.00;52.10;;;;;;4932859;29;20465;-67
2023/01/22 05:18:49;;;;;;;2.37;2.17;;;21.00;52.10;;;;;;4932287;29;20456;-67
2023/01/22 05:21:18;;;;;;;1.77;1.67;;;21.00;52.00;;;;;;4934492;29;20442;-67
2023/01/22 05:23:47;;;;;;;2.57;2.37;;;21.00;52.00;;;;;;4933022;29;21046;-68
2023/01/22 05:26:16;;;;;;;2.10;2.00;;;21.00;52.00;;;;;;4931156;29;20519;-67
2023/01/22 05:29:05;;;;;;;1.73;1.53;;;21.10;52.00;;;;;;4930919;29;20471;-67
2023/01/22 05:32:02;;;;;;;2.17;2.07;;;21.00;52.00;;;;;;4930765;29;20629;-68
2023/01/22 05:34:38;;;;;;;2.43;2.27;;;21.00;52.00;;;;;;4933027;29;20465;-68
2023/01/22 05:37:06;;;;;;;2.13;2.03;;;21.00;52.00;;;;;;4932713;29;20537;-67
2023/01/22 05:39:35;;;;;;;5.00;1.90;;;21.00;52.00;;;;;;4929980;29;20914;-67
2023/01/22 05:42:06;;;;;;;2.40;2.30;;;21.00;52.00;;;;;;4929882;29;20490;-67
2023/01/22 05:44:34;;;;;;;2.40;2.20;;;21.10;52.00;;;;;;4932916;29;20458;-67
2023/01/22 05:47:02;;;;;;;2.30;2.10;;;21.00;52.00;;;;;;4932055;29;20477;-69
2023/01/22 05:49:50;;;;;;;2.00;1.90;;;21.00;52.10;;;;;;4934116;29;20505;-67
2023/01/22 05:52:19;;;;;;;2.20;2.00;;;21.10;52.10;;;;;;4930042;29;20465;-67
2023/01/22 05:54:47;;;;;;;2.10;2.00;;;21.10;52.10;;;;;;4931283;29;20505;-67
2023/01/22 05:57:16;;;;;;;2.27;2.00;;;21.10;52.10;;;;;;4929747;29;20470;-67
2023/01/22 05:59:44;;;;;;;2.40;2.20;;;21.10;52.00;;;;;;4931278;29;20450;-67
2023/01/22 06:02:13;;;;;;;2.23;2.03;;;21.10;52.00;;;;;;4929872;29;20529;-68
2023/01/22 06:04:44;;;;;;;2.07;1.97;;;21.10;51.90;;;;;;4933178;29;20447;-67
2023/01/22 06:07:24;;;;;;;2.00;1.90;;;21.10;51.90;;;;;;4927089;29;20499;-67
2023/01/22 06:09:53;;;;;;;1.87;1.73;;;21.10;51.90;;;;;;4932563;29;20558;-67
2023/01/22 06:12:21;;;;;;;2.33;2.17;;;21.10;51.80;;;;;;4932477;29;20807;-66
2023/01/22 06:14:51;;;;;;;1.80;1.70;;;21.10;51.80;;;;;;4933564;29;20593;-72
2023/01/22 06:17:20;;;;;;;1.90;1.80;;;21.10;51.80;;;;;;4929390;29;20459;-67
2023/01/22 06:19:54;;;;;;;3.73;2.20;;;21.10;51.80;;;;;;4929746;29;20474;-67
2023/01/22 06:22:23;;;;;;;2.60;2.27;;;21.10;51.80;;;;;;4932990;29;20449;-66
2023/01/22 06:24:56;;;;;;;2.07;1.87;;;21.10;51.80;;;;;;4932305;29;20478;-67
2023/01/22 06:27:31;;;;;;;2.00;1.80;;;21.10;51.80;;;;;;4930953;29;21002;-67
2023/01/22 06:30:01;;;;;;;2.63;2.43;;;21.00;51.80;;;;;;4931716;29;20959;-66
2023/01/22 06:32:29;;;;;;;2.40;2.20;;;21.00;51.80;;;;;;4930739;29;20459;-67
2023/01/22 06:34:59;;;;;;;2.20;2.00;;;21.00;51.80;;;;;;4922031;29;20457;-67
2023/01/22 06:37:29;;;;;;;1.80;1.70;;;21.00;51.80;;;;;;4930702;29;20462;-63
2023/01/22 06:39:58;;;;;;;2.40;2.20;;;21.00;51.80;;;;;;4929563;29;20537;-66
2023/01/22 06:42:37;;;;;;;2.10;2.00;;;21.00;51.90;;;;;;4930005;29;20469;-66
2023/01/22 06:45:07;;;;;;;2.50;2.17;;;21.00;52.00;;;;;;4930939;29;20484;-66
2023/01/22 06:47:37;;;;;;;3.20;2.33;;;21.00;52.10;;;;;;4931903;29;20510;-66
2023/01/22 06:50:06;;;;;;;2.00;1.90;;;21.00;52.10;;;;;;4927968;29;20476;-65
2023/01/22 06:52:35;;;;;;;4.20;2.20;;;21.00;52.20;;;;;;4929877;29;20570;-66
2023/01/22 06:55:04;;;;;;;2.50;2.30;;;21.00;52.20;;;;;;4932415;29;20998;-65
2023/01/22 06:57:33;;;;;;;2.90;2.03;;;21.00;52.20;;;;;;4930715;29;20462;-66
2023/01/22 07:00:01;;;;;;;2.10;1.90;;;21.00;52.20;;;;;;4927455;29;20562;-65
2023/01/22 07:02:30;;;;;;;1.83;1.73;;;21.00;52.20;;;;;;4928710;29;20463;-66
2023/01/22 07:04:58;;;;;;;2.17;1.97;;;21.00;52.20;;;;;;4931237;29;20451;-66
2023/01/22 07:07:26;;;;;;;1.90;1.80;;;21.00;52.20;;;;;;4933818;29;20968;-65
2023/01/22 07:09:56;;;;;;;2.10;2.00;;;21.00;52.10;;;;;;4934795;29;20532;-65
2023/01/22 07:12:24;;;;;;;2.43;1.83;;;21.00;52.10;;;;;;4929995;29;20541;-66
2023/01/22 07:14:52;;;;;;;2.23;1.70;;;21.10;52.00;;;;;;4934503;29;20564;-64
2023/01/22 07:17:20;;;;;;;2.63;2.43;;;21.10;52.00;;;;;;4932827;29;20549;-65
2023/01/22 07:19:48;;;;;;;2.53;2.33;;;21.10;51.90;;;;;;4934300;29;20447;-65
2023/01/22 07:22:16;;;;;;;2.00;1.90;;;21.10;51.80;;;;;;4934778;29;20441;-66
2023/01/22 07:24:44;;;;;;;2.37;2.17;;;21.10;51.80;;;;;;4932236;29;20910;-66
2023/01/22 07:27:14;;;;;;;2.50;2.00;;;21.10;51.70;;;;;;4935873;29;20582;-66
2023/01/22 07:29:42;;;;;;;2.00;1.90;;;21.10;51.70;;;;;;4936112;29;20564;-65
2023/01/22 07:32:10;;;;;;;2.73;2.53;;;21.10;51.60;;;;;;4933760;29;20967;-64
2023/01/22 07:34:38;;;;;;;2.07;1.97;;;21.10;51.60;;;;;;4933754;29;21058;-66
2023/01/22 07:37:06;;;;;;;2.73;2.53;;;21.10;51.60;;;;;;4933491;29;20464;-65
2023/01/22 07:39:35;;;;;;;2.50;2.30;;;21.10;51.50;;;;;;4934807;29;20820;-67
2023/01/22 07:42:04;;;;;;;2.70;1.80;;;21.10;51.50;;;;;;4932923;29;20492;-65
2023/01/22 07:44:35;;;;;;;2.73;2.53;;;21.10;51.50;;;;;;4933366;29;20526;-65
2023/01/22 07:47:04;;;;;;;2.17;2.07;;;21.10;51.50;;;;;;4934191;29;20951;-66
2023/01/22 07:49:32;;;;;;;2.70;2.30;;;21.10;51.50;;;;;;4933372;29;20441;-66
2023/01/22 07:52:00;;;;;;;2.20;2.10;;;21.00;51.50;;;;;;4933495;29;21033;-66
2023/01/22 07:54:28;;;;;;;2.67;2.17;;;21.10;51.50;;;;;;4935331;29;20562;-67
2023/01/22 07:56:57;;;;;;;2.40;2.30;;;21.10;51.50;;;;;;4927340;29;20880;-67
2023/01/22 07:59:25;;;;;;;2.40;2.20;;;21.00;51.50;;;;;;4933114;29;20576;-67
2023/01/22 08:01:56;;;;;;;2.17;2.07;;;21.10;51.50;;;;;;4934644;29;20450;-67
2023/01/22 08:04:24;;;;;;;2.20;2.00;;;21.10;51.50;;;;;;4934525;29;20536;-66
2023/01/22 08:06:52;;;;;;;2.40;2.20;;;21.10;51.60;;;;;;4930729;29;21009;-66
2023/01/22 08:09:24;;;;;;;2.50;2.30;;;21.10;51.50;;;;;;4929364;29;20500;-66
2023/01/22 08:11:52;;;;;;;2.40;2.20;;;21.10;51.50;;;;;;4930186;29;20454;-67
2023/01/22 08:14:21;;;;;;;2.20;2.10;;;21.10;51.50;;;;;;4931175;29;20495;-66
2023/01/22 08:16:49;;;;;;;2.53;2.20;;;21.10;51.50;;;;;;4930994;29;20465;-67
2023/01/22 08:19:18;;;;;;;2.60;2.40;;;21.10;51.50;;;;;;4930867;29;20454;-67
2023/01/22 08:21:46;;;;;;;2.90;2.67;;;21.10;51.50;;;;;;4931418;29;20450;-66
2023/01/22 08:24:15;;;;;;;2.63;2.43;;;21.10;51.50;;;;;;4933022;29;20872;-67
2023/01/22 08:26:44;;;;;;;2.50;2.37;;;21.10;51.50;;;;;;4933444;29;20497;-67
2023/01/22 08:29:12;;;;;;;2.77;2.43;;;21.20;51.40;;;;;;4931236;29;20482;-66
2023/01/22 08:31:40;;;;;;;2.63;2.43;;;21.20;51.40;;;;;;4932928;29;20966;-66
2023/01/22 08:34:09;;;;;;;3.00;2.70;;;21.20;51.40;;;;;;4928103;29;20451;-67
2023/01/22 08:36:38;;;;;;;2.73;2.53;;;21.20;51.30;;;;;;4933597;29;20484;-67
2023/01/22 08:39:06;;;;;;;2.83;2.63;;;21.20;51.30;;;;;;4930792;29;20558;-67
2023/01/22 08:41:35;;;;;;;2.70;2.50;;;21.20;51.20;;;;;;4931926;29;20525;-66
2023/01/22 08:44:03;;;;;;;3.20;3.00;;;21.20;51.20;;;;;;4931478;29;20457;-65
2023/01/22 08:46:31;;;;;;;3.00;2.80;;;21.20;51.20;;;;;;4930259;29;20451;-66
2023/01/22 08:48:59;;;;;;;3.07;2.77;;;21.30;51.20;;;;;;4928987;29;20459;-67
2023/01/22 08:51:28;;;;;;;3.07;2.87;;;21.30;51.10;;;;;;4929859;29;20461;-67
2023/01/22 08:53:57;;;;;;;3.30;3.10;;;21.30;51.10;;;;;;4930791;29;20451;-66
2023/01/22 08:56:25;;;;;;;2.97;2.77;;;21.30;51.10;;;;;;4928953;29;20509;-66
2023/01/22 08:58:58;;;;;;;3.07;2.87;;;21.30;51.10;;;;;;4931524;29;20578;-66
2023/01/22 09:01:27;;;;;;;2.97;2.80;;;21.30;51.00;;;;;;4928239;29;20446;-67
2023/01/22 09:03:55;;;;;;;3.13;2.93;;;21.30;51.00;;;;;;4929517;29;20476;-66
2023/01/22 09:06:23;;;;;;;3.07;2.87;;;21.30;51.00;;;;;;4930209;29;20553;-66
2023/01/22 09:08:52;;;;;;;3.03;2.83;;;21.30;51.00;;;;;;4931898;29;20523;-65
2023/01/22 09:11:21;;;;;;;3.40;3.20;;;21.40;51.00;;;;;;4932938;29;20556;-66
2023/01/22 09:13:50;;;;;;;3.47;3.27;;;21.40;51.00;;;;;;4929046;29;20554;-66
2023/01/22 09:16:18;;;;;;;2.80;2.60;;;21.40;50.90;;;;;;4931426;29;20935;-65
2023/01/22 09:18:46;;;;;;;3.20;3.00;;;21.40;50.90;;;;;;4929810;29;20451;-67
2023/01/22 09:21:14;;;;;;;4.03;3.73;;;21.40;50.90;;;;;;4930218;29;20892;-66
2023/01/22 09:23:43;;;;;;;3.30;3.10;;;21.50;50.90;;;;;;4933318;29;20533;-65
2023/01/22 09:26:11;;;;;;;3.57;3.27;;;21.50;51.00;;;;;;4927578;29;20585;-65
2023/01/22 09:28:41;;;;;;;3.80;3.50;;;21.50;51.00;;;;;;4930101;29;21416;-65
2023/01/22 09:31:11;;;;;;;4.10;3.80;;;21.50;51.10;;;;;;4931685;29;20462;-64
2023/01/22 09:33:40;;;;;;;3.57;3.37;;;21.50;51.20;;;;;;4927463;29;20852;-65
2023/01/22 09:36:09;;;;;;;3.43;3.13;;;21.60;51.20;;;;;;4928724;29;20463;-65
2023/01/22 09:38:38;;;;;;;3.20;3.00;;;21.60;51.30;;;;;;4932312;29;20536;-65
2023/01/22 09:41:15;;;;;;;3.67;3.47;;;21.60;51.40;;;;;;4925952;29;20582;-67
2023/01/22 09:43:51;;;;;;;3.73;2.80;;;21.60;51.40;;;;;;4931402;29;20460;-66
2023/01/22 09:46:24;;;;;;;3.00;2.80;;;21.60;51.50;;;;;;4926782;29;20545;-66
2023/01/22 09:48:56;;;;;;;3.03;2.83;;;21.60;51.50;;;;;;4928545;29;20490;-65
2023/01/22 09:51:25;;;;;;;3.80;3.50;;;21.60;51.60;;;;;;4925927;29;20493;-66
2023/01/22 09:53:58;;;;;;;3.97;3.63;;;21.60;51.60;;;;;;4932579;29;20549;-66
2023/01/22 09:56:32;;;;;;;3.10;2.80;;;21.60;51.60;;;;;;4931606;29;20517;-67
2023/01/22 09:59:04;;;;;;;3.37;3.17;;;21.60;51.70;;;;;;4926738;29;20985;-66
2023/01/22 10:01:33;;;;;;;3.37;3.17;;;21.60;51.70;;;;;;4922355;29;20901;-66
2023/01/22 10:04:06;;;;;;;6.10;2.87;;;21.60;51.80;;;;;;4924650;29;20447;-66
2023/01/22 10:06:35;;;;;;;4.13;2.90;;;21.60;51.80;;;;;;4928697;29;20800;-66
2023/01/22 10:09:14;;;;;;;3.60;3.30;;;21.60;51.90;;;;;;4927349;29;20502;-66
2023/01/22 10:11:46;;;;;;;3.60;3.30;;;21.60;51.90;;;;;;4926147;29;20492;-66
2023/01/22 10:14:17;;;;;;;3.80;3.50;;;21.60;52.00;;;;;;4929496;29;20574;-67
2023/01/22 10:16:47;;;;;;;4.90;2.90;;;21.60;52.00;;;;;;4925068;29;20812;-67
2023/01/22 10:19:21;;;;;;;3.97;3.57;;;21.60;52.10;;;;;;4926580;29;20456;-66
2023/01/22 10:21:53;;;;;;;4.27;3.50;;;21.60;52.50;;;;;;4928111;29;20526;-67
2023/01/22 10:24:21;;;;;;;3.63;3.20;;;21.60;52.80;;;;;;4927861;29;20467;-67
2023/01/22 10:26:53;;;;;;;4.33;3.93;;;21.60;53.10;;;;;;4927856;29;20471;-67
2023/01/22 10:29:25;;;;;;;4.43;3.77;;;21.70;53.30;;;;;;4927923;29;20491;-67
2023/01/22 10:31:55;;;;;;;3.97;3.57;;;21.70;53.50;;;;;;4918154;29;20472;-67
2023/01/22 10:34:29;;;;;;;6.00;3.77;;;21.70;53.50;;;;;;4925211;29;20488;-67
2023/01/22 10:37:01;;;;;;;5.53;3.90;;;21.70;53.60;;;;;;4927330;29;20802;-66
2023/01/22 10:39:38;;;;;;;7.60;3.50;;;21.70;53.60;;;;;;4932781;29;20515;-66
2023/01/22 10:42:07;;;;;;;4.27;3.90;;;21.70;53.60;;;;;;4931384;29;20590;-68
2023/01/22 10:44:38;;;;;;;5.30;3.07;;;21.70;53.60;;;;;;4926049;29;20860;-68
2023/01/22 10:47:19;;;;;;;4.73;3.57;;;21.80;53.60;;;;;;4924160;29;20520;-68
2023/01/22 10:49:48;;;;;;;4.93;3.67;;;21.70;53.60;;;;;;4932539;29;20479;-68
2023/01/22 10:52:22;;;;;;;3.43;3.13;;;21.80;53.60;;;;;;4929443;29;20533;-69
2023/01/22 10:54:55;;;;;;;6.53;4.10;;;21.80;53.60;;;;;;4929650;29;20935;-69
2023/01/22 10:57:31;;;;;;;7.60;4.10;;;21.80;53.60;;;;;;4930545;29;21014;-67
2023/01/22 11:00:07;;;;;;;5.73;3.67;;;21.80;53.60;;;;;;4935926;29;20465;-68
2023/01/22 11:02:36;;;;;;;6.63;3.67;;;21.80;53.70;;;;;;4933060;29;20865;-68
2023/01/22 11:05:14;;;;;;;8.13;4.10;;;21.80;53.70;;;;;;4930122;29;20453;-68
2023/01/22 11:07:44;;;;;;;8.87;4.73;;;21.80;53.60;;;;;;4929666;29;20478;-68
2023/01/22 11:10:19;;;;;;;5.97;3.83;;;21.80;53.50;;;;;;4927590;29;20578;-67
2023/01/22 11:12:50;;;;;;;9.00;4.10;;;21.80;53.40;;;;;;4931649;29;20463;-68
2023/01/22 11:15:28;;;;;;;7.03;3.83;;;21.80;53.30;;;;;;4928552;29;20841;-68
2023/01/22 11:18:01;;;;;;;6.40;4.10;;;21.80;53.20;;;;;;4932718;29;20464;-68
2023/01/22 11:20:33;;;;;;;7.80;3.50;;;21.90;53.00;;;;;;4928556;29;20563;-68
2023/01/22 11:23:14;;;;;;;4.27;3.17;;;22.00;52.90;;;;;;4927728;29;20456;-69
2023/01/22 11:25:46;;;;;;;3.90;3.50;;;22.00;52.80;;;;;;4928184;29;20465;-67
2023/01/22 11:28:28;;;;;;;3.63;3.23;;;22.10;52.70;;;;;;4932350;29;20862;-68
2023/01/22 11:31:15;;;;;;;4.77;3.27;;;22.10;52.60;;;;;;4931196;29;20525;-69
2023/01/22 11:34:20;;;;;;;4.53;3.50;;;22.20;52.40;;;;;;4943545;29;20464;-68
2023/01/22 11:36:56;;;;;;;3.40;3.13;;;22.30;52.30;;;;;;4924719;29;20452;-68
2023/01/22 11:39:42;;;;;;;4.77;3.60;;;22.30;52.20;;;;;;4931675;29;20994;-68
2023/01/22 11:42:26;;;;;;;3.57;3.10;;;22.40;52.10;;;;;;4930332;29;20985;-69
2023/01/22 11:45:10;;;;;;;3.30;3.00;;;22.40;52.00;;;;;;4929177;29;20465;-68
2023/01/22 11:48:14;;;;;;;4.83;2.73;;;22.40;52.00;;;;;;4931495;29;20500;-69
2023/01/22 11:50:47;;;;;;;2.97;2.77;;;22.40;52.00;;;;;;4924772;29;20583;-68
2023/01/22 11:53:45;;;;;;;3.23;2.93;;;22.40;51.90;;;;;;4928090;29;20467;-68
2023/01/22 11:56:26;;;;;;;3.43;3.13;;;22.40;52.00;;;;;;4928348;29;20468;-73
2023/01/22 11:59:02;;;;;;;3.03;2.77;;;22.50;52.00;;;;;;4932373;29;20493;-68
2023/01/22 12:01:44;;;;;;;4.80;3.67;;;22.60;52.00;;;;;;4930444;29;20456;-69
2023/01/22 12:04:37;;;;;;;3.83;2.70;;;22.70;51.60;;;;;;4932222;29;20527;-68
2023/01/22 12:07:24;;;;;;;3.33;2.90;;;22.70;51.50;;;;;;4933224;29;20977;-69
2023/01/22 12:10:03;;;;;;;3.83;3.07;;;22.80;51.40;;;;;;4927614;29;20534;-68
2023/01/22 12:12:42;;;;;;;6.27;3.23;;;22.80;51.30;;;;;;4934457;29;20463;-68
2023/01/22 12:15:22;;;;;;;2.93;2.57;;;22.90;51.10;;;;;;4927742;29;21058;-67
2023/01/22 12:18:01;;;;;;;3.33;2.77;;;22.90;51.10;;;;;;4930517;29;20467;-68
2023/01/22 12:20:49;;;;;;;3.60;3.30;;;22.90;51.10;;;;;;4933057;29;20566;-69
2023/01/22 12:23:22;;;;;;;7.40;3.00;;;22.80;51.00;;;;;;4926676;29;20834;-69
2023/01/22 12:25:57;;;;;;;3.47;2.50;;;22.80;51.00;;;;;;4930585;29;20855;-68
2023/01/22 12:28:28;;;;;;;2.93;2.60;;;22.80;51.00;;;;;;4934327;29;20541;-69
2023/01/22 12:31:02;;;;;;;3.13;2.83;;;22.80;51.10;;;;;;4922529;29;20473;-68
2023/01/22 12:33:33;;;;;;;3.23;2.93;;;22.70;51.10;;;;;;4931214;29;20453;-67
2023/01/22 12:36:05;;;;;;;2.53;2.30;;;22.70;51.10;;;;;;4933733;29;20458;-68
2023/01/22 12:38:41;;;;;;;3.33;3.00;;;22.60;51.20;;;;;;4932905;29;20540;-67
2023/01/22 12:41:29;;;;;;;3.10;2.80;;;22.60;51.30;;;;;;4930846;29;21051;-68
2023/01/22 12:44:01;;;;;;;5.07;2.87;;;22.60;51.30;;;;;;4927167;29;20456;-68
2023/01/22 12:46:48;;;;;;;2.67;2.57;;;22.50;51.40;;;;;;4932821;29;20847;-68
2023/01/22 12:49:17;;;;;;;3.03;2.83;;;22.50;51.40;;;;;;4931483;29;20481;-68
2023/01/22 12:51:50;;;;;;;2.87;2.57;;;22.50;51.40;;;;;;4934358;29;20487;-69
2023/01/22 12:54:27;;;;;;;2.70;2.13;;;22.50;51.50;;;;;;4929474;29;20499;-68
2023/01/22 12:57:09;;;;;;;2.63;2.53;;;22.40;51.50;;;;;;4930599;29;20469;-69
2023/01/22 12:59:46;;;;;;;2.60;2.40;;;22.40;51.60;;;;;;4932629;29;20499;-69
2023/01/22 13:02:37;;;;;;;3.10;2.80;;;22.40;51.60;;;;;;4932420;29;20558;-67
2023/01/22 13:05:37;;;;;;;3.80;2.50;;;22.40;51.70;;;;;;4930184;29;20469;-68
2023/01/22 13:08:22;;;;;;;2.50;2.30;;;22.30;51.70;;;;;;4922776;29;20456;-68
2023/01/22 13:10:56;;;;;;;3.20;2.37;;;22.30;51.70;;;;;;4929594;29;20475;-69
2023/01/22 13:13:29;;;;;;;3.20;2.90;;;22.30;51.70;;;;;;4927917;29;20552;-70
2023/01/22 13:16:03;;;;;;;2.13;1.93;;;22.30;51.70;;;;;;4927413;29;20467;-68
2023/01/22 13:18:35;;;;;;;2.30;2.10;;;22.30;51.70;;;;;;4931516;29;20485;-68
2023/01/22 13:21:05;;;;;;;2.10;1.90;;;22.30;51.70;;;;;;4931972;29;20462;-67